createdAt,value
2017-12-03T00:00:05.866Z,0
2017-12-03T00:00:46.368Z,0
2017-12-03T00:01:26.909Z,0
2017-12-03T00:02:07.457Z,0
2017-12-03T00:02:47.955Z,0
2017-12-03T00:03:28.500Z,0
2017-12-03T00:04:09.045Z,0
2017-12-03T00:04:49.592Z,0
2017-12-03T00:05:30.175Z,0
2017-12-03T00:06:10.801Z,0
2017-12-03T00:06:51.332Z,0
2017-12-03T00:07:31.858Z,0
2017-12-03T00:08:12.356Z,0
2017-12-03T00:08:52.888Z,0
2017-12-03T00:09:33.424Z,0
2017-12-03T00:10:14.021Z,0
2017-12-03T00:10:54.506Z,0
2017-12-03T00:11:35.078Z,0
2017-12-03T00:12:15.719Z,0
2017-12-03T00:12:56.323Z,0
2017-12-03T00:13:36.826Z,0
2017-12-03T00:14:17.392Z,0
2017-12-03T00:14:57.952Z,0
2017-12-03T00:15:38.491Z,0
2017-12-03T00:16:19.061Z,0
2017-12-03T00:16:59.589Z,0
2017-12-03T00:17:40.114Z,0
2017-12-03T00:18:20.704Z,0
2017-12-03T00:19:01.217Z,0
2017-12-03T00:19:41.754Z,0
2017-12-03T00:20:22.261Z,0
2017-12-03T00:21:02.790Z,0
2017-12-03T00:21:43.347Z,0
2017-12-03T00:22:23.920Z,0
2017-12-03T00:23:04.437Z,0
2017-12-03T00:23:44.966Z,0
2017-12-03T00:24:25.512Z,0
2017-12-03T00:25:06.034Z,0
2017-12-03T00:25:46.623Z,0
2017-12-03T00:26:27.132Z,0
2017-12-03T00:27:07.728Z,0
2017-12-03T00:27:48.226Z,0
2017-12-03T00:28:28.804Z,0
2017-12-03T00:29:09.281Z,0
2017-12-03T00:29:49.838Z,0
2017-12-03T00:30:30.394Z,0
2017-12-03T00:31:10.980Z,0
2017-12-03T00:31:51.516Z,0
2017-12-03T00:32:32.089Z,0
2017-12-03T00:33:12.618Z,0
2017-12-03T00:33:53.201Z,0
2017-12-03T00:34:33.751Z,0
2017-12-03T00:35:14.816Z,0
2017-12-03T00:35:55.368Z,0
2017-12-03T00:36:35.944Z,0
2017-12-03T00:37:16.440Z,0
2017-12-03T00:37:56.979Z,0
2017-12-03T00:38:37.499Z,0
2017-12-03T00:39:18.023Z,0
2017-12-03T00:39:58.579Z,0
2017-12-03T00:40:39.116Z,0
2017-12-03T00:41:19.684Z,0
2017-12-03T00:42:00.181Z,0
2017-12-03T00:42:40.812Z,0
2017-12-03T00:43:21.309Z,0
2017-12-03T00:44:01.832Z,0
2017-12-03T00:44:42.395Z,0
2017-12-03T00:45:22.928Z,0
2017-12-03T00:46:03.479Z,0
2017-12-03T00:46:43.983Z,0
2017-12-03T00:47:24.525Z,0
2017-12-03T00:48:05.138Z,0
2017-12-03T00:48:45.708Z,0
2017-12-03T00:49:26.182Z,0
2017-12-03T00:50:06.727Z,0
2017-12-03T00:50:47.301Z,0
2017-12-03T00:51:27.836Z,0
2017-12-03T00:52:08.394Z,0
2017-12-03T00:52:48.928Z,0
2017-12-03T00:53:29.463Z,0
2017-12-03T00:54:10.011Z,0
2017-12-03T00:54:50.583Z,0
2017-12-03T00:55:31.096Z,0
2017-12-03T00:56:11.607Z,0
2017-12-03T00:56:52.159Z,0
2017-12-03T00:57:32.719Z,0
2017-12-03T00:58:13.223Z,0
2017-12-03T00:58:53.827Z,0
2017-12-03T00:59:34.362Z,0
2017-12-03T01:00:14.891Z,0
2017-12-03T01:00:55.375Z,0
2017-12-03T01:01:35.983Z,0
2017-12-03T01:02:16.524Z,0
2017-12-03T01:02:57.077Z,0
2017-12-03T01:03:37.632Z,0
2017-12-03T01:04:18.174Z,0
2017-12-03T01:04:58.704Z,0
2017-12-03T01:05:39.232Z,0
2017-12-03T01:06:19.790Z,0
2017-12-03T01:07:00.330Z,0
2017-12-03T01:07:40.869Z,0
2017-12-03T01:08:21.443Z,0
2017-12-03T01:09:01.932Z,0
2017-12-03T01:09:42.458Z,0
2017-12-03T01:10:23.047Z,0
2017-12-03T01:11:03.554Z,0
2017-12-03T01:11:44.109Z,0
2017-12-03T01:12:24.618Z,0
2017-12-03T01:13:05.199Z,0
2017-12-03T01:13:45.738Z,0
2017-12-03T01:14:26.264Z,0
2017-12-03T01:15:06.804Z,0
2017-12-03T01:15:47.369Z,0
2017-12-03T01:16:27.918Z,0
2017-12-03T01:17:08.416Z,0
2017-12-03T01:17:49.011Z,0
2017-12-03T01:18:29.504Z,0
2017-12-03T01:19:10.076Z,0
2017-12-03T01:19:50.612Z,0
2017-12-03T01:20:31.160Z,0
2017-12-03T01:21:11.673Z,0
2017-12-03T01:21:52.262Z,0
2017-12-03T01:22:32.807Z,0
2017-12-03T01:23:13.340Z,0
2017-12-03T01:23:53.839Z,0
2017-12-03T01:24:34.400Z,0
2017-12-03T01:25:14.910Z,0
2017-12-03T01:25:55.568Z,0
2017-12-03T01:26:36.086Z,0
2017-12-03T01:27:16.622Z,0
2017-12-03T01:27:57.124Z,0
2017-12-03T01:28:37.686Z,0
2017-12-03T01:29:18.248Z,0
2017-12-03T01:29:58.789Z,0
2017-12-03T01:30:39.333Z,0
2017-12-03T01:31:19.878Z,0
2017-12-03T01:32:00.432Z,0
2017-12-03T01:32:40.997Z,0
2017-12-03T01:33:21.552Z,0
2017-12-03T01:34:02.146Z,0
2017-12-03T01:34:42.681Z,0
2017-12-03T01:35:23.197Z,0
2017-12-03T01:36:03.739Z,0
2017-12-03T01:36:44.275Z,0
2017-12-03T01:37:24.807Z,0
2017-12-03T01:38:05.349Z,0
2017-12-03T01:38:45.859Z,0
2017-12-03T01:39:26.366Z,0
2017-12-03T01:40:06.941Z,0
2017-12-03T01:40:47.449Z,0
2017-12-03T01:41:28.016Z,0
2017-12-03T01:42:08.497Z,0
2017-12-03T01:42:49.087Z,0
2017-12-03T01:43:29.661Z,0
2017-12-03T01:44:10.146Z,0
2017-12-03T01:44:50.733Z,0
2017-12-03T01:45:31.211Z,0
2017-12-03T01:46:11.734Z,0
2017-12-03T01:46:52.449Z,0
2017-12-03T01:47:32.954Z,0
2017-12-03T01:48:13.475Z,0
2017-12-03T01:48:54.010Z,0
2017-12-03T01:49:34.642Z,0
2017-12-03T01:50:15.185Z,0
2017-12-03T01:50:55.689Z,0
2017-12-03T01:51:36.223Z,0
2017-12-03T01:52:16.793Z,0
2017-12-03T01:52:57.263Z,0
2017-12-03T01:53:37.803Z,0
2017-12-03T01:54:18.401Z,0
2017-12-03T01:54:58.867Z,0
2017-12-03T01:55:39.424Z,0
2017-12-03T01:56:20.198Z,0
2017-12-03T01:57:00.808Z,0
2017-12-03T01:57:41.284Z,0
2017-12-03T01:58:21.825Z,0
2017-12-03T01:59:02.388Z,0
2017-12-03T01:59:42.920Z,0
2017-12-03T02:00:23.449Z,0
2017-12-03T02:01:04.015Z,0
2017-12-03T02:01:44.526Z,0
2017-12-03T02:02:25.109Z,0
2017-12-03T02:03:05.601Z,0
2017-12-03T02:03:46.146Z,0
2017-12-03T02:04:26.663Z,0
2017-12-03T02:05:07.183Z,0
2017-12-03T02:05:47.741Z,0
2017-12-03T02:06:28.287Z,0
2017-12-03T02:07:08.864Z,0
2017-12-03T02:07:49.398Z,0
2017-12-03T02:08:30.061Z,0
2017-12-03T02:09:10.643Z,0
2017-12-03T02:09:51.215Z,0
2017-12-03T02:10:31.662Z,0
2017-12-03T02:11:12.193Z,0
2017-12-03T02:11:52.732Z,0
2017-12-03T02:12:33.298Z,0
2017-12-03T02:13:13.809Z,0
2017-12-03T02:13:54.337Z,0
2017-12-03T02:14:34.894Z,0
2017-12-03T02:15:15.437Z,0
2017-12-03T02:15:55.979Z,0
2017-12-03T02:16:36.466Z,0
2017-12-03T02:17:17.048Z,0
2017-12-03T02:17:57.596Z,0
2017-12-03T02:18:38.158Z,0
2017-12-03T02:19:18.680Z,0
2017-12-03T02:19:59.218Z,0
2017-12-03T02:20:39.798Z,0
2017-12-03T02:21:20.307Z,0
2017-12-03T02:22:00.848Z,0
2017-12-03T02:22:41.411Z,0
2017-12-03T02:23:21.933Z,0
2017-12-03T02:24:02.489Z,0
2017-12-03T02:24:43.062Z,0
2017-12-03T02:25:23.595Z,0
2017-12-03T02:26:04.106Z,0
2017-12-03T02:26:44.672Z,0
2017-12-03T02:27:25.229Z,0
2017-12-03T02:28:05.803Z,0
2017-12-03T02:28:46.244Z,0
2017-12-03T02:29:26.839Z,0
2017-12-03T02:30:07.386Z,0
2017-12-03T02:30:47.911Z,0
2017-12-03T02:31:28.440Z,0
2017-12-03T02:32:09.010Z,0
2017-12-03T02:32:49.527Z,0
2017-12-03T02:33:30.095Z,0
2017-12-03T02:34:10.587Z,0
2017-12-03T02:34:51.124Z,0
2017-12-03T02:35:31.641Z,0
2017-12-03T02:36:12.151Z,0
2017-12-03T02:36:52.708Z,0
2017-12-03T02:37:33.257Z,0
2017-12-03T02:38:13.769Z,0
2017-12-03T02:38:54.292Z,0
2017-12-03T02:39:34.848Z,0
2017-12-03T02:40:15.401Z,0
2017-12-03T02:40:56.010Z,0
2017-12-03T02:41:36.478Z,0
2017-12-03T02:42:17.044Z,0
2017-12-03T02:42:57.532Z,0
2017-12-03T02:43:38.123Z,0
2017-12-03T02:44:18.647Z,0
2017-12-03T02:44:59.234Z,0
2017-12-03T02:45:39.760Z,0
2017-12-03T02:46:20.240Z,0
2017-12-03T02:47:00.818Z,0
2017-12-03T02:47:41.348Z,0
2017-12-03T02:48:21.885Z,0
2017-12-03T02:49:02.381Z,0
2017-12-03T02:49:42.900Z,0
2017-12-03T02:50:23.456Z,0
2017-12-03T02:51:04.015Z,0
2017-12-03T02:51:44.485Z,0
2017-12-03T02:52:25.027Z,0
2017-12-03T02:53:05.557Z,0
2017-12-03T02:53:46.088Z,0
2017-12-03T02:54:26.650Z,0
2017-12-03T02:55:07.189Z,0
2017-12-03T02:55:47.716Z,0
2017-12-03T02:56:28.263Z,0
2017-12-03T02:57:08.761Z,0
2017-12-03T02:57:49.296Z,0
2017-12-03T02:58:29.856Z,0
2017-12-03T02:59:10.435Z,0
2017-12-03T02:59:50.935Z,0
2017-12-03T03:00:31.459Z,0
2017-12-03T03:01:12.022Z,0
2017-12-03T03:01:52.487Z,0
2017-12-03T03:02:33.061Z,0
2017-12-03T03:03:13.627Z,0
2017-12-03T03:03:54.195Z,0
2017-12-03T03:04:34.710Z,0
2017-12-03T03:05:15.242Z,0
2017-12-03T03:05:55.799Z,0
2017-12-03T03:06:36.358Z,0
2017-12-03T03:07:16.916Z,0
2017-12-03T03:07:57.395Z,0
2017-12-03T03:08:37.923Z,0
2017-12-03T03:09:18.441Z,0
2017-12-03T03:09:58.965Z,0
2017-12-03T03:10:39.498Z,0
2017-12-03T03:11:20.005Z,0
2017-12-03T03:12:00.576Z,0
2017-12-03T03:12:41.122Z,0
2017-12-03T03:13:21.599Z,0
2017-12-03T03:14:02.104Z,0
2017-12-03T03:14:42.659Z,0
2017-12-03T03:15:23.186Z,0
2017-12-03T03:16:03.697Z,0
2017-12-03T03:16:44.240Z,0
2017-12-03T03:17:24.769Z,0
2017-12-03T03:18:05.331Z,0
2017-12-03T03:18:45.944Z,0
2017-12-03T03:19:26.478Z,0
2017-12-03T03:20:07.001Z,0
2017-12-03T03:20:47.540Z,0
2017-12-03T03:21:28.116Z,0
2017-12-03T03:22:08.605Z,0
2017-12-03T03:22:49.093Z,0
2017-12-03T03:23:29.694Z,0
2017-12-03T03:24:10.209Z,0
2017-12-03T03:24:50.743Z,0
2017-12-03T03:25:31.276Z,0
2017-12-03T03:26:11.821Z,0
2017-12-03T03:26:52.314Z,0
2017-12-03T03:27:32.832Z,0
2017-12-03T03:28:13.351Z,0
2017-12-03T03:28:53.879Z,0
2017-12-03T03:29:34.575Z,0
2017-12-03T03:30:15.054Z,0
2017-12-03T03:30:55.588Z,0
2017-12-03T03:31:36.137Z,0
2017-12-03T03:32:16.667Z,0
2017-12-03T03:32:57.202Z,0
2017-12-03T03:33:37.764Z,0
2017-12-03T03:34:18.262Z,0
2017-12-03T03:34:58.811Z,0
2017-12-03T03:35:39.331Z,0
2017-12-03T03:36:19.896Z,0
2017-12-03T03:37:00.431Z,0
2017-12-03T03:37:40.968Z,0
2017-12-03T03:38:21.493Z,0
2017-12-03T03:39:02.051Z,0
2017-12-03T03:39:42.545Z,0
2017-12-03T03:40:23.110Z,0
2017-12-03T03:41:03.599Z,0
2017-12-03T03:41:44.161Z,0
2017-12-03T03:42:24.679Z,0
2017-12-03T03:43:05.206Z,0
2017-12-03T03:43:45.768Z,0
2017-12-03T03:44:26.307Z,0
2017-12-03T03:45:06.838Z,0
2017-12-03T03:45:47.404Z,0
2017-12-03T03:46:27.894Z,0
2017-12-03T03:47:08.420Z,0
2017-12-03T03:47:48.957Z,0
2017-12-03T03:48:29.497Z,0
2017-12-03T03:49:10.005Z,0
2017-12-03T03:49:50.533Z,0
2017-12-03T03:50:31.076Z,0
2017-12-03T03:51:11.630Z,0
2017-12-03T03:51:52.157Z,0
2017-12-03T03:52:32.699Z,0
2017-12-03T03:53:13.229Z,0
2017-12-03T03:53:53.754Z,0
2017-12-03T03:54:34.293Z,0
2017-12-03T03:55:14.846Z,0
2017-12-03T03:55:55.365Z,0
2017-12-03T03:56:35.878Z,0
2017-12-03T03:57:17.278Z,0
2017-12-03T03:57:57.035Z,0
2017-12-03T03:58:37.529Z,0
2017-12-03T03:59:18.144Z,0
2017-12-03T03:59:58.679Z,0
2017-12-03T04:00:39.189Z,0
2017-12-03T04:01:19.739Z,0
2017-12-03T04:02:00.277Z,0
2017-12-03T04:02:40.851Z,0
2017-12-03T04:03:21.340Z,0
2017-12-03T04:04:01.929Z,0
2017-12-03T04:04:42.422Z,0
2017-12-03T04:05:22.990Z,0
2017-12-03T04:06:03.500Z,0
2017-12-03T04:06:44.066Z,0
2017-12-03T04:07:24.633Z,0
2017-12-03T04:08:05.126Z,0
2017-12-03T04:08:45.629Z,0
2017-12-03T04:09:26.164Z,0
2017-12-03T04:10:06.720Z,0
2017-12-03T04:10:47.268Z,0
2017-12-03T04:11:27.779Z,0
2017-12-03T04:12:08.353Z,0
2017-12-03T04:12:48.895Z,0
2017-12-03T04:13:29.414Z,0
2017-12-03T04:14:09.928Z,0
2017-12-03T04:14:50.466Z,0
2017-12-03T04:15:31.049Z,0
2017-12-03T04:16:11.586Z,0
2017-12-03T04:16:52.115Z,0
2017-12-03T04:17:32.633Z,0
2017-12-03T04:18:13.228Z,0
2017-12-03T04:18:53.735Z,0
2017-12-03T04:19:34.278Z,0
2017-12-03T04:20:14.783Z,0
2017-12-03T04:20:55.359Z,0
2017-12-03T04:21:35.874Z,0
2017-12-03T04:22:16.436Z,0
2017-12-03T04:22:56.944Z,0
2017-12-03T04:23:37.604Z,0
2017-12-03T04:24:18.108Z,0
2017-12-03T04:24:58.648Z,0
2017-12-03T04:25:39.211Z,0
2017-12-03T04:26:19.724Z,0
2017-12-03T04:27:00.256Z,0
2017-12-03T04:27:40.782Z,0
2017-12-03T04:28:21.308Z,0
2017-12-03T04:29:01.858Z,0
2017-12-03T04:29:42.393Z,0
2017-12-03T04:30:22.955Z,0
2017-12-03T04:31:03.466Z,0
2017-12-03T04:31:44.044Z,0
2017-12-03T04:32:24.577Z,0
2017-12-03T04:33:05.071Z,0
2017-12-03T04:33:45.595Z,0
2017-12-03T04:34:26.171Z,0
2017-12-03T04:35:06.705Z,0
2017-12-03T04:35:47.266Z,0
2017-12-03T04:36:27.856Z,0
2017-12-03T04:37:08.362Z,0
2017-12-03T04:37:48.874Z,0
2017-12-03T04:38:29.372Z,0
2017-12-03T04:39:09.917Z,0
2017-12-03T04:39:50.460Z,0
2017-12-03T04:40:30.972Z,0
2017-12-03T04:41:11.627Z,0
2017-12-03T04:41:52.130Z,0
2017-12-03T04:42:32.721Z,0
2017-12-03T04:43:13.247Z,0
2017-12-03T04:43:53.769Z,0
2017-12-03T04:44:34.316Z,0
2017-12-03T04:45:14.835Z,0
2017-12-03T04:45:55.394Z,0
2017-12-03T04:46:35.858Z,0
2017-12-03T04:47:16.404Z,0
2017-12-03T04:47:56.953Z,0
2017-12-03T04:48:37.501Z,0
2017-12-03T04:49:18.054Z,0
2017-12-03T04:49:58.580Z,0
2017-12-03T04:50:39.092Z,0
2017-12-03T04:51:19.625Z,0
2017-12-03T04:52:00.168Z,0
2017-12-03T04:52:40.718Z,0
2017-12-03T04:53:21.282Z,0
2017-12-03T04:54:01.818Z,0
2017-12-03T04:54:42.331Z,0
2017-12-03T04:55:22.884Z,0
2017-12-03T04:56:03.423Z,0
2017-12-03T04:56:43.960Z,0
2017-12-03T04:57:24.448Z,0
2017-12-03T04:58:04.993Z,0
2017-12-03T04:58:45.551Z,0
2017-12-03T04:59:26.086Z,0
2017-12-03T05:00:06.652Z,0
2017-12-03T05:00:47.175Z,0
2017-12-03T05:01:27.690Z,0
2017-12-03T05:02:08.230Z,0
2017-12-03T05:02:48.800Z,0
2017-12-03T05:03:29.344Z,0
2017-12-03T05:04:09.855Z,0
2017-12-03T05:04:50.381Z,0
2017-12-03T05:05:30.946Z,0
2017-12-03T05:06:11.499Z,0
2017-12-03T05:06:52.009Z,0
2017-12-03T05:07:32.619Z,0
2017-12-03T05:08:13.193Z,0
2017-12-03T05:08:53.702Z,0
2017-12-03T05:09:34.301Z,0
2017-12-03T05:10:14.815Z,0
2017-12-03T05:10:55.378Z,0
2017-12-03T05:11:35.866Z,0
2017-12-03T05:12:16.427Z,0
2017-12-03T05:12:56.965Z,0
2017-12-03T05:13:37.512Z,0
2017-12-03T05:14:18.052Z,0
2017-12-03T05:14:58.591Z,0
2017-12-03T05:15:39.144Z,0
2017-12-03T05:16:19.649Z,0
2017-12-03T05:17:00.193Z,0
2017-12-03T05:17:40.694Z,0
2017-12-03T05:18:21.365Z,0
2017-12-03T05:19:01.848Z,0
2017-12-03T05:19:42.435Z,0
2017-12-03T05:20:22.935Z,0
2017-12-03T05:21:03.505Z,0
2017-12-03T05:21:43.969Z,0
2017-12-03T05:22:24.494Z,0
2017-12-03T05:23:05.038Z,0
2017-12-03T05:23:45.559Z,0
2017-12-03T05:24:26.071Z,0
2017-12-03T05:25:06.611Z,0
2017-12-03T05:25:47.134Z,0
2017-12-03T05:26:27.668Z,0
2017-12-03T05:27:08.254Z,0
2017-12-03T05:27:48.745Z,0
2017-12-03T05:28:29.296Z,0
2017-12-03T05:29:09.844Z,0
2017-12-03T05:29:50.434Z,0
2017-12-03T05:30:30.960Z,0
2017-12-03T05:31:11.526Z,0
2017-12-03T05:31:52.048Z,0
2017-12-03T05:32:32.592Z,0
2017-12-03T05:33:13.121Z,0
2017-12-03T05:33:53.680Z,0
2017-12-03T05:34:34.190Z,0
2017-12-03T05:35:14.707Z,0
2017-12-03T05:35:55.242Z,0
2017-12-03T05:36:35.795Z,0
2017-12-03T05:37:16.366Z,0
2017-12-03T05:37:56.906Z,0
2017-12-03T05:38:37.453Z,0
2017-12-03T05:39:18.016Z,0
2017-12-03T05:39:58.553Z,0
2017-12-03T05:40:39.125Z,0
2017-12-03T05:41:19.628Z,0
2017-12-03T05:42:00.162Z,0
2017-12-03T05:42:40.742Z,0
2017-12-03T05:43:21.327Z,0
2017-12-03T05:44:01.826Z,0
2017-12-03T05:44:42.354Z,0
2017-12-03T05:45:22.864Z,0
2017-12-03T05:46:03.382Z,0
2017-12-03T05:46:43.937Z,0
2017-12-03T05:47:24.491Z,0
2017-12-03T05:48:05.030Z,0
2017-12-03T05:48:45.564Z,0
2017-12-03T05:49:26.081Z,0
2017-12-03T05:50:06.600Z,0
2017-12-03T05:50:47.160Z,0
2017-12-03T05:51:27.699Z,0
2017-12-03T05:52:08.357Z,0
2017-12-03T05:52:48.925Z,0
2017-12-03T05:53:29.493Z,0
2017-12-03T05:54:09.969Z,0
2017-12-03T05:54:50.493Z,0
2017-12-03T05:55:31.034Z,0
2017-12-03T05:56:11.596Z,0
2017-12-03T05:56:52.155Z,0
2017-12-03T05:57:32.690Z,0
2017-12-03T05:58:13.246Z,0
2017-12-03T05:58:53.755Z,0
2017-12-03T05:59:34.313Z,0
2017-12-03T06:00:14.888Z,0
2017-12-03T06:00:55.365Z,0
2017-12-03T06:01:35.917Z,0
2017-12-03T06:02:16.419Z,0
2017-12-03T06:02:56.931Z,0
2017-12-03T06:03:37.462Z,0
2017-12-03T06:04:17.976Z,0
2017-12-03T06:04:58.534Z,0
2017-12-03T06:05:39.050Z,0
2017-12-03T06:06:19.582Z,0
2017-12-03T06:07:00.144Z,0
2017-12-03T06:07:40.658Z,0
2017-12-03T06:08:21.212Z,0
2017-12-03T06:09:01.732Z,0
2017-12-03T06:09:42.248Z,0
2017-12-03T06:10:22.794Z,0
2017-12-03T06:11:03.308Z,0
2017-12-03T06:11:43.856Z,0
2017-12-03T06:12:24.412Z,0
2017-12-03T06:13:04.954Z,0
2017-12-03T06:13:45.480Z,0
2017-12-03T06:14:26.015Z,0
2017-12-03T06:15:06.590Z,0
2017-12-03T06:15:47.076Z,0
2017-12-03T06:16:27.606Z,0
2017-12-03T06:17:08.141Z,0
2017-12-03T06:17:48.750Z,0
2017-12-03T06:18:29.207Z,0
2017-12-03T06:19:09.754Z,0
2017-12-03T06:19:50.255Z,0
2017-12-03T06:20:30.770Z,0
2017-12-03T06:21:11.299Z,0
2017-12-03T06:21:51.823Z,0
2017-12-03T06:22:32.373Z,0
2017-12-03T06:23:12.914Z,0
2017-12-03T06:23:53.491Z,0
2017-12-03T06:24:34.014Z,0
2017-12-03T06:25:14.525Z,0
2017-12-03T06:25:55.089Z,0
2017-12-03T06:26:35.570Z,0
2017-12-03T06:27:16.147Z,0
2017-12-03T06:27:56.661Z,0
2017-12-03T06:28:37.192Z,0
2017-12-03T06:29:17.737Z,0
2017-12-03T06:29:58.261Z,0
2017-12-03T06:30:38.775Z,0
2017-12-03T06:31:19.307Z,0
2017-12-03T06:31:59.804Z,0
2017-12-03T06:32:40.358Z,0
2017-12-03T06:33:20.911Z,0
2017-12-03T06:34:01.463Z,0
2017-12-03T06:34:41.946Z,0
2017-12-03T06:35:22.492Z,0
2017-12-03T06:36:03.046Z,0
2017-12-03T06:36:43.683Z,0
2017-12-03T06:37:24.202Z,0
2017-12-03T06:38:04.727Z,4
2017-12-03T06:38:45.247Z,4
2017-12-03T06:39:25.811Z,4
2017-12-03T06:40:06.311Z,0
2017-12-03T06:40:46.841Z,0
2017-12-03T06:41:27.380Z,4
2017-12-03T06:42:07.918Z,4
2017-12-03T06:42:48.489Z,4
2017-12-03T06:43:29.073Z,0
2017-12-03T06:44:09.621Z,4
2017-12-03T06:44:50.137Z,4
2017-12-03T06:45:30.699Z,4
2017-12-03T06:46:11.282Z,4
2017-12-03T06:46:51.806Z,4
2017-12-03T06:47:32.307Z,4
2017-12-03T06:48:12.884Z,8
2017-12-03T06:48:53.436Z,4
2017-12-03T06:49:33.962Z,8
2017-12-03T06:50:14.472Z,8
2017-12-03T06:50:55.038Z,8
2017-12-03T06:51:35.524Z,8
2017-12-03T06:52:16.079Z,8
2017-12-03T06:52:56.636Z,12
2017-12-03T06:53:37.192Z,8
2017-12-03T06:54:17.723Z,12
2017-12-03T06:54:58.387Z,12
2017-12-03T06:55:39.015Z,12
2017-12-03T06:56:19.633Z,12
2017-12-03T06:57:00.140Z,16
2017-12-03T06:57:40.699Z,16
2017-12-03T06:58:21.234Z,20
2017-12-03T06:59:01.790Z,20
2017-12-03T06:59:42.350Z,20
2017-12-03T07:00:22.901Z,24
2017-12-03T07:01:03.517Z,24
2017-12-03T07:01:44.025Z,28
2017-12-03T07:02:24.558Z,32
2017-12-03T07:03:05.088Z,32
2017-12-03T07:03:45.661Z,32
2017-12-03T07:04:26.179Z,40
2017-12-03T07:05:06.728Z,44
2017-12-03T07:05:47.247Z,44
2017-12-03T07:06:27.814Z,52
2017-12-03T07:07:08.345Z,56
2017-12-03T07:07:48.867Z,64
2017-12-03T07:08:29.450Z,72
2017-12-03T07:09:09.934Z,76
2017-12-03T07:09:50.489Z,88
2017-12-03T07:10:31.020Z,96
2017-12-03T07:11:11.539Z,108
2017-12-03T07:11:52.061Z,116
2017-12-03T07:12:32.604Z,124
2017-12-03T07:13:13.131Z,132
2017-12-03T07:13:53.669Z,140
2017-12-03T07:14:34.265Z,152
2017-12-03T07:15:14.785Z,164
2017-12-03T07:15:55.304Z,176
2017-12-03T07:16:35.832Z,184
2017-12-03T07:17:16.370Z,192
2017-12-03T07:17:56.945Z,192
2017-12-03T07:18:37.475Z,192
2017-12-03T07:19:18.080Z,192
2017-12-03T07:19:58.588Z,192
2017-12-03T07:20:39.141Z,188
2017-12-03T07:21:19.677Z,180
2017-12-03T07:22:00.333Z,184
2017-12-03T07:22:40.795Z,184
2017-12-03T07:23:21.396Z,192
2017-12-03T07:24:01.926Z,200
2017-12-03T07:24:42.475Z,212
2017-12-03T07:25:22.956Z,224
2017-12-03T07:26:03.540Z,232
2017-12-03T07:26:44.028Z,248
2017-12-03T07:27:24.582Z,264
2017-12-03T07:28:05.063Z,280
2017-12-03T07:28:45.743Z,300
2017-12-03T07:29:26.285Z,320
2017-12-03T07:30:06.779Z,344
2017-12-03T07:30:47.294Z,368
2017-12-03T07:31:27.805Z,396
2017-12-03T07:32:08.388Z,424
2017-12-03T07:32:48.902Z,448
2017-12-03T07:33:29.470Z,468
2017-12-03T07:34:10.041Z,496
2017-12-03T07:34:51.317Z,524
2017-12-03T07:35:31.148Z,544
2017-12-03T07:36:11.622Z,564
2017-12-03T07:36:52.171Z,580
2017-12-03T07:37:32.714Z,596
2017-12-03T07:38:13.213Z,612
2017-12-03T07:38:53.754Z,624
2017-12-03T07:39:34.306Z,636
2017-12-03T07:40:14.917Z,644
2017-12-03T07:40:55.453Z,632
2017-12-03T07:41:36.071Z,628
2017-12-03T07:42:16.573Z,616
2017-12-03T07:42:57.092Z,612
2017-12-03T07:43:37.592Z,624
2017-12-03T07:44:18.129Z,656
2017-12-03T07:44:58.668Z,668
2017-12-03T07:45:39.237Z,668
2017-12-03T07:46:19.771Z,692
2017-12-03T07:47:00.279Z,684
2017-12-03T07:47:40.813Z,676
2017-12-03T07:48:21.388Z,672
2017-12-03T07:49:01.911Z,664
2017-12-03T07:49:42.500Z,660
2017-12-03T07:50:22.978Z,664
2017-12-03T07:51:03.524Z,676
2017-12-03T07:51:44.088Z,692
2017-12-03T07:52:24.630Z,708
2017-12-03T07:53:05.174Z,720
2017-12-03T07:53:45.729Z,728
2017-12-03T07:54:26.246Z,740
2017-12-03T07:55:06.797Z,756
2017-12-03T07:55:47.367Z,780
2017-12-03T07:56:27.948Z,796
2017-12-03T07:57:08.496Z,820
2017-12-03T07:57:49.236Z,844
2017-12-03T07:58:29.780Z,860
2017-12-03T07:59:10.323Z,880
2017-12-03T07:59:50.878Z,900
2017-12-03T08:00:31.475Z,916
2017-12-03T08:01:11.951Z,924
2017-12-03T08:01:52.486Z,924
2017-12-03T08:02:33.014Z,908
2017-12-03T08:03:13.660Z,884
2017-12-03T08:03:54.172Z,848
2017-12-03T08:04:34.740Z,808
2017-12-03T08:05:15.263Z,768
2017-12-03T08:05:55.835Z,736
2017-12-03T08:06:36.367Z,716
2017-12-03T08:07:16.905Z,708
2017-12-03T08:07:57.447Z,708
2017-12-03T08:08:37.979Z,712
2017-12-03T08:09:18.513Z,720
2017-12-03T08:09:59.093Z,732
2017-12-03T08:10:39.613Z,744
2017-12-03T08:11:20.166Z,752
2017-12-03T08:12:00.718Z,760
2017-12-03T08:12:41.242Z,768
2017-12-03T08:13:21.815Z,776
2017-12-03T08:14:02.356Z,780
2017-12-03T08:14:42.858Z,780
2017-12-03T08:15:23.399Z,780
2017-12-03T08:16:03.958Z,772
2017-12-03T08:16:44.462Z,756
2017-12-03T08:17:25.002Z,748
2017-12-03T08:18:05.550Z,740
2017-12-03T08:18:46.068Z,748
2017-12-03T08:19:26.610Z,760
2017-12-03T08:20:07.120Z,772
2017-12-03T08:20:47.669Z,788
2017-12-03T08:21:28.209Z,800
2017-12-03T08:22:08.758Z,816
2017-12-03T08:22:49.318Z,828
2017-12-03T08:23:29.872Z,836
2017-12-03T08:24:10.414Z,836
2017-12-03T08:24:50.959Z,840
2017-12-03T08:25:31.531Z,844
2017-12-03T08:26:12.039Z,860
2017-12-03T08:26:52.623Z,876
2017-12-03T08:27:33.188Z,896
2017-12-03T08:28:13.730Z,912
2017-12-03T08:28:54.248Z,928
2017-12-03T08:29:34.788Z,948
2017-12-03T08:30:15.303Z,972
2017-12-03T08:30:55.806Z,1000
2017-12-03T08:31:36.364Z,1036
2017-12-03T08:32:16.874Z,1072
2017-12-03T08:32:57.402Z,1120
2017-12-03T08:33:37.946Z,1136
2017-12-03T08:34:18.504Z,1152
2017-12-03T08:34:59.019Z,1156
2017-12-03T08:35:39.526Z,1156
2017-12-03T08:36:20.073Z,1164
2017-12-03T08:37:00.588Z,1188
2017-12-03T08:37:41.136Z,1208
2017-12-03T08:38:21.671Z,1228
2017-12-03T08:39:02.204Z,1248
2017-12-03T08:39:42.755Z,1264
2017-12-03T08:40:23.283Z,1268
2017-12-03T08:41:03.881Z,1272
2017-12-03T08:41:44.397Z,1272
2017-12-03T08:42:24.929Z,1272
2017-12-03T08:43:05.498Z,1260
2017-12-03T08:43:46.063Z,1244
2017-12-03T08:44:26.631Z,1216
2017-12-03T08:45:07.157Z,1180
2017-12-03T08:45:47.697Z,1144
2017-12-03T08:46:28.278Z,1100
2017-12-03T08:47:08.803Z,1060
2017-12-03T08:47:49.317Z,1020
2017-12-03T08:48:29.973Z,996
2017-12-03T08:49:10.382Z,984
2017-12-03T08:49:50.924Z,976
2017-12-03T08:50:31.488Z,984
2017-12-03T08:51:12.073Z,1000
2017-12-03T08:51:52.566Z,1016
2017-12-03T08:52:33.054Z,1024
2017-12-03T08:53:13.591Z,1032
2017-12-03T08:53:54.234Z,1036
2017-12-03T08:54:34.730Z,1036
2017-12-03T08:55:15.246Z,1028
2017-12-03T08:55:55.776Z,1024
2017-12-03T08:56:36.298Z,1020
2017-12-03T08:57:16.814Z,1008
2017-12-03T08:57:57.369Z,988
2017-12-03T08:58:37.925Z,972
2017-12-03T08:59:18.433Z,948
2017-12-03T08:59:58.986Z,920
2017-12-03T09:00:39.655Z,900
2017-12-03T09:01:20.213Z,888
2017-12-03T09:02:00.700Z,860
2017-12-03T09:02:41.293Z,836
2017-12-03T09:03:21.789Z,824
2017-12-03T09:04:02.312Z,812
2017-12-03T09:04:42.870Z,800
2017-12-03T09:05:23.405Z,792
2017-12-03T09:06:03.967Z,788
2017-12-03T09:06:44.471Z,792
2017-12-03T09:07:25.016Z,800
2017-12-03T09:08:05.547Z,804
2017-12-03T09:08:46.126Z,808
2017-12-03T09:09:26.661Z,820
2017-12-03T09:10:07.239Z,836
2017-12-03T09:10:47.790Z,840
2017-12-03T09:11:28.325Z,836
2017-12-03T09:12:08.873Z,824
2017-12-03T09:12:49.453Z,800
2017-12-03T09:13:30.004Z,772
2017-12-03T09:14:10.585Z,760
2017-12-03T09:14:51.134Z,776
2017-12-03T09:15:31.669Z,792
2017-12-03T09:16:12.200Z,792
2017-12-03T09:16:52.706Z,820
2017-12-03T09:17:33.284Z,832
2017-12-03T09:18:13.783Z,808
2017-12-03T09:18:54.366Z,752
2017-12-03T09:19:34.861Z,684
2017-12-03T09:20:15.379Z,628
2017-12-03T09:20:55.949Z,604
2017-12-03T09:21:36.469Z,620
2017-12-03T09:22:16.999Z,632
2017-12-03T09:22:57.570Z,628
2017-12-03T09:23:38.065Z,604
2017-12-03T09:24:18.605Z,608
2017-12-03T09:24:59.183Z,644
2017-12-03T09:25:39.720Z,672
2017-12-03T09:26:20.231Z,688
2017-12-03T09:27:00.764Z,696
2017-12-03T09:27:41.301Z,692
2017-12-03T09:28:21.890Z,684
2017-12-03T09:29:02.452Z,664
2017-12-03T09:29:42.981Z,648
2017-12-03T09:30:23.461Z,628
2017-12-03T09:31:04.015Z,608
2017-12-03T09:31:44.578Z,576
2017-12-03T09:32:25.110Z,532
2017-12-03T09:33:05.680Z,528
2017-12-03T09:33:46.198Z,548
2017-12-03T09:34:26.718Z,548
2017-12-03T09:35:07.285Z,560
2017-12-03T09:35:47.789Z,568
2017-12-03T09:36:28.402Z,572
2017-12-03T09:37:08.875Z,572
2017-12-03T09:37:49.413Z,564
2017-12-03T09:38:29.946Z,568
2017-12-03T09:39:10.555Z,584
2017-12-03T09:39:51.082Z,608
2017-12-03T09:40:31.594Z,652
2017-12-03T09:41:12.173Z,704
2017-12-03T09:41:53.343Z,728
2017-12-03T09:42:33.197Z,724
2017-12-03T09:43:13.734Z,720
2017-12-03T09:43:54.263Z,724
2017-12-03T09:44:34.822Z,716
2017-12-03T09:45:15.330Z,716
2017-12-03T09:45:55.903Z,704